Wednesday, October 18, 2017, 3:40 AM EDT
Back to Local

KTTN, Trenton Mercer County Airport

Location: Trenton, NJ, United States Lat: 40.283
Local Time: 3:40 AM EDT ( 7:40 GMT) Lon: -74.817
Time Zone: US/Eastern Elev: 213 ft

Show me the last for .
Show Coded

Time T Td Feel RH Dir Speed Gust Alt SLP Vis Weather Sky Remarks
2017-10-18 02:53 42 38 - 85 - Calm - 30.30 30.29 10 CLR None
2017-10-18 01:53 43 37 - 79 - Calm - 30.31 30.29 10 CLR 6-hr Min Temp (2am): 43.0°F
6-hr Max Temp (2am): 53.1°F
2017-10-18 00:53 45 38 - 76 - Calm - 30.31 30.29 10 CLR 24-hr Min Temp (1am): 37.0°F
24-hr Max Temp (1am): 61.0°F
2017-10-17 23:53 44 37 - 76 - Calm - 30.31 30.29 10 CLR None
2017-10-17 22:53 48 38 47 67 240° 3 - 30.31 30.29 10 CLR None
2017-10-17 21:53 49 37 47 63 230° 5 - 30.30 30.28 10 CLR None
2017-10-17 20:53 51 36 - 56 230° 3 - 30.29 30.27 10 CLR None
2017-10-17 19:53 47 37 45 68 170° 5 - 30.28 30.27 10 CLR 6-hr Min Temp (8pm): 46.9°F
6-hr Max Temp (8pm): 61.0°F
2017-10-17 18:53 55 34 - 44 230° 3 - 30.27 30.25 10 CLR None
2017-10-17 17:53 57 34 - 41 230° 6 - 30.26 30.25 10 CLR None
2017-10-17 16:53 60 33 - 36 320° 3 - 30.26 30.24 10 CLR None
2017-10-17 15:53 60 34 - 37 270° 7 - 30.27 30.25 10 CLR None
2017-10-17 14:53 59 35 - 40 250° 7 - 30.28 30.26 10 CLR None
2017-10-17 13:53 58 35 - 42 290° 6 - 30.29 30.28 10 CLR 6-hr Min Temp (2pm): 39.9°F
6-hr Max Temp (2pm): 57.9°F
2017-10-17 12:53 54 34 - 46 Variable 5 - 30.31 30.29 10 CLR None
2017-10-17 11:53 53 34 - 48 300° 7 - 30.34 30.32 10 CLR None
2017-10-17 10:53 50 34 48 53 40° 6 - 30.35 30.34 10 CLR None
2017-10-17 09:53 48 35 46 60 Variable 5 - 30.36 30.34 10 CLR None
2017-10-17 08:53 44 34 42 67 360° 5 - 30.35 30.34 10 CLR None
2017-10-17 07:53 40 32 36 73 340° 6 - 30.33 30.32 10 CLR 6-hr Min Temp (8am): 37.0°F
6-hr Max Temp (8am): 43.0°F
2017-10-17 06:53 38 32 33 78 340° 6 - 30.32 30.30 10 CLR None
2017-10-17 05:53 38 32 34 78 320° 5 - 30.30 30.29 10 CLR None
2017-10-17 04:53 39 32 37 75 330° 3 - 30.28 30.26 10 CLR None
2017-10-17 03:53 39 32 35 75 340° 6 - 30.26 30.24 10 CLR None

Support USWX by starting your Amazon purchase here.